Time;durP1;ratioP1;P1;durP2;ratioP2;P2;SDS_P1;SDS_P2;PMS_P1;PMS_P2;Temp;Humidity;BMP_temperature;BMP_pressure;BME280_temperature;BME280_humidity;BME280_pressure;Samples;Min_cycle;Max_cycle;Signal;HPM_P1;HPM_P2
2023/11/03 00:02:12;;;;;;;0.80;0.80;;;;;;;6.01;100.00;89621.56;6146148;23;20025;-75
2023/11/03 00:04:38;;;;;;;1.38;0.90;;;;;;;6.02;100.00;89617.84;6146123;23;20017;-76
2023/11/03 00:07:05;;;;;;;0.82;0.82;;;;;;;6.03;100.00;89616.78;6146216;23;20095;-77
2023/11/03 00:09:35;;;;;;;1.55;1.10;;;;;;;6.04;100.00;89612.34;6145965;23;20490;-76
2023/11/03 00:12:03;;;;;;;0.93;0.85;;;;;;;6.11;100.00;89624.78;6145081;23;20013;-75
2023/11/03 00:14:32;;;;;;;1.67;1.10;;;;;;;6.07;100.00;89629.84;6145615;23;20004;-76
2023/11/03 00:16:59;;;;;;;1.88;1.00;;;;;;;6.07;100.00;89639.50;6145677;23;20107;-75
2023/11/03 00:19:25;;;;;;;1.90;1.17;;;;;;;6.03;100.00;89631.59;6145587;23;20393;-76
2023/11/03 00:21:55;;;;;;;1.20;1.00;;;;;;;6.02;100.00;89636.03;6145860;23;20005;-77
2023/11/03 00:24:23;;;;;;;5.40;1.10;;;;;;;6.02;100.00;89637.88;6145527;23;20052;-75
2023/11/03 00:26:48;;;;;;;1.60;1.20;;;;;;;6.01;100.00;89631.94;6145658;23;20084;-76
2023/11/03 00:29:15;;;;;;;2.30;1.20;;;;;;;6.00;100.00;89633.00;6144736;23;20041;-76
2023/11/03 00:31:47;;;;;;;3.35;1.38;;;;;;;6.01;100.00;89625.97;6145843;23;20009;-76
2023/11/03 00:34:14;;;;;;;1.55;1.08;;;;;;;6.03;100.00;89624.59;6145228;23;20009;-76
2023/11/03 00:36:41;;;;;;;2.20;1.15;;;;;;;6.05;100.00;89617.19;6145684;23;20029;-76
2023/11/03 00:39:12;;;;;;;2.42;1.42;;;;;;;6.12;100.00;89611.44;6145817;23;20082;-77
2023/11/03 00:41:41;;;;;;;3.03;1.73;;;;;;;6.11;100.00;89606.59;6145510;23;20017;-76
2023/11/03 00:44:09;;;;;;;3.55;2.03;;;;;;;6.09;100.00;89603.56;6145617;23;20236;-76
2023/11/03 00:46:35;;;;;;;5.53;2.13;;;;;;;6.07;100.00;89598.69;6144292;23;20018;-75
2023/11/03 00:49:02;;;;;;;8.40;2.40;;;;;;;6.02;100.00;89597.09;6146432;23;20387;-77
2023/11/03 00:51:28;;;;;;;4.85;2.40;;;;;;;6.00;100.00;89588.13;6146234;23;20013;-77
2023/11/03 00:53:53;;;;;;;4.78;2.50;;;;;;;5.95;100.00;89581.31;6145812;23;20366;-76
2023/11/03 00:56:19;;;;;;;4.03;2.38;;;;;;;5.94;100.00;89572.00;6145648;23;20500;-77
2023/11/03 00:58:45;;;;;;;3.78;2.10;;;;;;;5.95;100.00;89576.13;6143888;23;20629;-77
2023/11/03 01:01:13;;;;;;;3.95;2.08;;;;;;;5.98;100.00;89572.84;6143952;23;20371;-76
2023/11/03 01:03:39;;;;;;;4.15;2.38;;;;;;;5.97;100.00;89568.75;6143740;23;20028;-75
2023/11/03 01:06:07;;;;;;;3.42;1.90;;;;;;;6.00;100.00;89572.53;6145250;23;20329;-77
2023/11/03 01:08:34;;;;;;;4.03;1.95;;;;;;;6.01;100.00;89576.63;6143960;23;20362;-77
2023/11/03 01:10:59;;;;;;;3.35;1.95;;;;;;;6.02;100.00;89575.56;6144120;23;20209;-77
2023/11/03 01:13:27;;;;;;;2.45;1.55;;;;;;;6.03;100.00;89575.25;6143859;23;20084;-77
2023/11/03 01:15:52;;;;;;;5.22;1.40;;;;;;;6.04;100.00;89570.78;6145433;23;20538;-77
2023/11/03 01:18:18;;;;;;;1.83;1.33;;;;;;;6.10;100.00;89571.31;6144319;23;20025;-76
2023/11/03 01:20:48;;;;;;;2.00;1.20;;;;;;;6.14;100.00;89556.59;6143849;23;20018;-76
2023/11/03 01:23:17;;;;;;;1.90;1.20;;;;;;;6.12;100.00;89549.13;6143857;23;20421;-76
2023/11/03 01:25:45;;;;;;;1.77;1.30;;;;;;;6.14;100.00;89552.13;6145259;23;20018;-77
2023/11/03 01:28:14;;;;;;;1.10;1.00;;;;;;;6.13;100.00;89536.91;6145413;23;20006;-77
2023/11/03 01:30:39;;;;;;;2.28;1.30;;;;;;;6.13;100.00;89531.72;6145628;23;20512;-76
2023/11/03 01:33:06;;;;;;;1.42;1.10;;;;;;;6.15;100.00;89529.53;6145733;23;20063;-77
2023/11/03 01:35:31;;;;;;;1.55;1.10;;;;;;;6.16;100.00;89528.44;6146166;23;20010;-75
2023/11/03 01:37:57;;;;;;;2.03;1.10;;;;;;;6.16;100.00;89518.06;6144008;23;20256;-77
2023/11/03 01:40:23;;;;;;;1.35;1.13;;;;;;;6.21;100.00;89526.38;6143773;23;20029;-76
2023/11/03 01:42:49;;;;;;;1.77;1.08;;;;;;;6.22;100.00;89521.94;6145235;23;20093;-77
2023/11/03 01:45:15;;;;;;;2.17;1.38;;;;;;;6.21;100.00;89516.00;6144966;23;20018;-77
2023/11/03 01:47:41;;;;;;;1.75;1.15;;;;;;;6.20;100.00;89524.09;6120682;22;20490;-77
2023/11/03 01:50:09;;;;;;;1.80;1.20;;;;;;;6.18;100.00;89510.69;6145113;23;20037;-76
2023/11/03 01:52:38;;;;;;;2.17;1.23;;;;;;;6.20;100.00;89503.31;6145617;23;20020;-75
2023/11/03 01:55:06;;;;;;;2.70;1.38;;;;;;;6.18;100.00;89493.25;6147116;23;20009;-76
2023/11/03 01:57:32;;;;;;;2.42;1.30;;;;;;;6.17;100.00;89483.97;6147533;23;20025;-77
2023/11/03 01:59:58;;;;;;;1.38;1.17;;;;;;;6.19;100.00;89478.41;6145844;23;20017;-78
2023/11/03 02:02:27;;;;;;;2.20;1.30;;;;;;;6.18;100.00;89474.31;6121317;23;20519;-77
2023/11/03 02:04:53;;;;;;;2.15;1.40;;;;;;;6.18;100.00;89463.94;6146884;23;20078;-77
2023/11/03 02:07:18;;;;;;;2.80;1.40;;;;;;;6.17;100.00;89459.81;6146884;23;20215;-77
2023/11/03 02:09:44;;;;;;;2.13;1.05;;;;;;;6.17;100.00;89452.78;6147253;23;20002;-77
2023/11/03 02:12:11;;;;;;;0.85;0.75;;;;;;;6.19;100.00;89455.03;6147177;23;20499;-77
2023/11/03 02:14:37;;;;;;;1.42;1.10;;;;;;;6.18;100.00;89450.94;6145888;23;20018;-77
2023/11/03 02:17:03;;;;;;;1.95;1.02;;;;;;;6.23;100.00;89448.09;6148184;23;20008;-76
2023/11/03 02:19:30;;;;;;;1.63;1.15;;;;;;;6.22;100.00;89444.75;6148038;23;20350;-77
2023/11/03 02:21:56;;;;;;;1.45;1.00;;;;;;;6.22;100.00;89436.22;6148119;23;20021;-77
2023/11/03 02:24:22;;;;;;;1.27;0.90;;;;;;;6.20;100.00;89433.19;6147000;23;20014;-77
2023/11/03 02:26:48;;;;;;;1.27;0.98;;;;;;;6.20;100.00;89433.19;6145733;23;20021;-76
2023/11/03 02:29:13;;;;;;;7.53;1.20;;;;;;;6.18;100.00;89425.72;6147420;23;20017;-77
2023/11/03 02:31:40;;;;;;;1.45;1.00;;;;;;;6.18;100.00;89419.78;6147461;23;20013;-76
2023/11/03 02:34:06;;;;;;;0.90;0.90;;;;;;;6.18;100.00;89427.56;6147328;23;20001;-77
2023/11/03 02:36:32;;;;;;;1.55;1.05;;;;;;;6.28;100.00;89423.72;6147947;23;20482;-77
2023/11/03 02:38:59;;;;;;;0.98;0.80;;;;;;;6.28;100.00;89427.06;6148123;23;20046;-76
2023/11/03 02:41:25;;;;;;;1.55;1.00;;;;;;;6.24;100.00;89416.59;6145673;23;20032;-77
2023/11/03 02:43:50;;;;;;;0.90;0.90;;;;;;;6.25;100.00;89417.34;6121333;23;20045;-76
2023/11/03 02:46:16;;;;;;;1.00;0.88;;;;;;;6.27;100.00;89422.97;6147547;23;20017;-77
2023/11/03 02:48:42;;;;;;;1.10;0.98;;;;;;;6.25;100.00;89420.69;6147527;23;20343;-76
2023/11/03 02:51:08;;;;;;;0.70;0.70;;;;;;;6.30;100.00;89411.91;6147303;23;20013;-77
2023/11/03 02:53:34;;;;;;;1.20;0.90;;;;;;;6.35;100.00;89411.69;6146982;23;20048;-77
2023/11/03 02:56:00;;;;;;;1.88;0.80;;;;;;;6.36;100.00;89402.78;6147215;23;20009;-76
2023/11/03 02:58:29;;;;;;;0.70;0.70;;;;;;;6.36;100.00;89402.03;6145026;23;20037;-76
2023/11/03 03:00:55;;;;;;;0.70;0.70;;;;;;;6.36;100.00;89389.03;6147799;23;20023;-76
2023/11/03 03:03:21;;;;;;;0.70;0.70;;;;;;;6.38;100.00;89385.00;6147245;23;20376;-76
2023/11/03 03:05:46;;;;;;;1.00;0.80;;;;;;;6.38;100.00;89377.22;6147523;23;20342;-76
2023/11/03 03:08:12;;;;;;;0.75;0.75;;;;;;;6.40;100.00;89367.25;6147164;23;20005;-77
2023/11/03 03:10:38;;;;;;;0.80;0.80;;;;;;;6.38;100.00;89369.44;6147154;23;20099;-77
2023/11/03 03:13:04;;;;;;;0.70;0.60;;;;;;;6.38;100.00;89363.47;6144947;23;20022;-77
2023/11/03 03:15:30;;;;;;;0.80;0.80;;;;;;;6.35;100.00;89359.72;6122017;23;20009;-76
2023/11/03 03:17:55;;;;;;;0.73;0.70;;;;;;;6.36;100.00;89366.41;6145261;23;20353;-76
2023/11/03 03:20:22;;;;;;;0.63;0.63;;;;;;;6.34;100.00;89371.19;6145796;23;20017;-77
2023/11/03 03:22:48;;;;;;;1.10;0.75;;;;;;;6.27;100.00;89362.47;6145264;23;20040;-77
2023/11/03 03:25:14;;;;;;;0.93;0.70;;;;;;;6.26;100.00;89356.53;6145622;23;20009;-77
2023/11/03 03:27:40;;;;;;;1.40;0.95;;;;;;;6.30;100.00;89352.16;6147107;23;20036;-76
2023/11/03 03:30:07;;;;;;;0.70;0.70;;;;;;;6.29;100.00;89350.66;6145121;23;20426;-77
2023/11/03 03:32:32;;;;;;;0.80;0.80;;;;;;;6.34;100.00;89353.00;6144941;23;20502;-77
2023/11/03 03:34:58;;;;;;;2.97;0.90;;;;;;;6.38;100.00;89353.09;6146370;23;20139;-76
2023/11/03 03:37:24;;;;;;;0.77;0.77;;;;;;;6.40;100.00;89356.84;6145905;23;20008;-77
2023/11/03 03:39:50;;;;;;;4.18;1.00;;;;;;;6.35;100.00;89349.31;6120076;23;20130;-77
2023/11/03 03:42:15;;;;;;;1.02;0.90;;;;;;;6.32;100.00;89352.56;6120627;23;20017;-75
2023/11/03 03:44:41;;;;;;;0.80;0.80;;;;;;;6.33;100.00;89348.91;6146683;23;20572;-76
2023/11/03 03:47:09;;;;;;;2.15;1.08;;;;;;;6.37;100.00;89341.94;6146892;23;20451;-77
2023/11/03 03:49:35;;;;;;;1.00;0.90;;;;;;;6.37;100.00;89344.56;6144827;23;20020;-77
2023/11/03 03:52:01;;;;;;;1.45;0.82;;;;;;;6.31;100.00;89343.28;6146389;23;20017;-77
2023/11/03 03:54:28;;;;;;;0.73;0.70;;;;;;;6.36;100.00;89347.47;6144799;23;20002;-76
2023/11/03 03:56:53;;;;;;;0.60;0.60;;;;;;;6.33;100.00;89341.09;6144158;23;20028;-76
2023/11/03 03:59:19;;;;;;;0.65;0.65;;;;;;;6.34;100.00;89341.84;6146232;23;20454;-76
2023/11/03 04:01:46;;;;;;;0.70;0.70;;;;;;;6.42;100.00;89338.34;6145060;23;20007;-77
2023/11/03 04:04:12;;;;;;;0.80;0.80;;;;;;;6.71;100.00;89328.56;6146704;23;20021;-77
2023/11/03 04:06:37;;;;;;;1.70;0.90;;;;;;;6.49;100.00;89337.75;6146176;23;20146;-76
2023/11/03 04:09:04;;;;;;;0.80;0.80;;;;;;;6.40;100.00;89345.72;6146579;23;20005;-77
2023/11/03 04:11:29;;;;;;;1.67;0.90;;;;;;;6.33;100.00;89346.31;6147041;23;20017;-76
2023/11/03 04:13:55;;;;;;;0.80;0.80;;;;;;;6.23;100.00;89344.19;6144448;23;20500;-77
2023/11/03 04:16:21;;;;;;;3.65;1.17;;;;;;;6.10;100.00;89342.78;6146086;23;20001;-77
2023/11/03 04:18:47;;;;;;;1.55;1.00;;;;;;;6.05;100.00;89341.94;6146171;23;20055;-76
2023/11/03 04:21:12;;;;;;;1.30;0.93;;;;;;;6.01;100.00;89340.34;6146207;23;20024;-76
2023/11/03 04:23:38;;;;;;;0.93;0.90;;;;;;;5.97;100.00;89342.88;6144670;23;20405;-77
2023/11/03 04:26:04;;;;;;;0.77;0.77;;;;;;;5.96;100.00;89348.38;6146430;23;20228;-76
2023/11/03 04:28:30;;;;;;;1.40;0.98;;;;;;;5.94;100.00;89343.50;6148814;23;20013;-77
2023/11/03 04:30:55;;;;;;;3.13;1.17;;;;;;;5.93;100.00;89352.38;6147060;23;20024;-77
2023/11/03 04:33:21;;;;;;;4.70;1.08;;;;;;;5.91;100.00;89357.13;6146525;23;20091;-77
2023/11/03 04:35:47;;;;;;;1.27;1.10;;;;;;;5.95;100.00;89362.47;6145312;23;20018;-76
2023/11/03 04:38:13;;;;;;;1.65;0.82;;;;;;;5.93;100.00;89365.34;6144929;23;20013;-76
2023/11/03 04:40:38;;;;;;;0.82;0.70;;;;;;;5.91;100.00;89367.53;6146102;23;20096;-76
2023/11/03 04:43:04;;;;;;;1.00;0.90;;;;;;;5.89;100.00;89372.28;6146571;23;20021;-76
2023/11/03 04:45:30;;;;;;;1.10;0.80;;;;;;;5.87;100.00;89371.88;6146079;23;20076;-76
2023/11/03 04:47:56;;;;;;;1.67;1.00;;;;;;;5.89;100.00;89381.94;6146198;23;20085;-76
2023/11/03 04:50:21;;;;;;;0.93;0.80;;;;;;;5.87;100.00;89384.84;6146414;23;20360;-76
2023/11/03 04:52:47;;;;;;;0.70;0.70;;;;;;;5.79;100.00;89389.13;6146738;23;20013;-77
2023/11/03 04:55:13;;;;;;;3.53;1.00;;;;;;;5.83;100.00;89396.97;6119936;23;20053;-77
2023/11/03 04:57:39;;;;;;;0.70;0.70;;;;;;;5.84;100.00;89388.13;6145622;23;20039;-77
2023/11/03 05:00:09;;;;;;;0.70;0.70;;;;;;;6.04;100.00;89387.19;6146031;23;20028;-77
2023/11/03 05:02:35;;;;;;;0.65;0.65;;;;;;;5.93;100.00;89375.75;6145636;23;20339;-76
2023/11/03 05:05:04;;;;;;;0.70;0.70;;;;;;;5.89;100.00;89387.88;6143658;23;20017;-76
2023/11/03 05:07:34;;;;;;;0.80;0.80;;;;;;;5.74;100.00;89393.78;6145656;23;20394;-77
2023/11/03 05:10:00;;;;;;;1.95;0.80;;;;;;;5.70;100.00;89387.75;6143541;23;20016;-76
2023/11/03 05:12:25;;;;;;;0.55;0.55;;;;;;;5.67;100.00;89383.22;6145190;23;20147;-75
2023/11/03 05:14:51;;;;;;;0.60;0.60;;;;;;;5.71;100.00;89390.00;6143910;23;20049;-76
2023/11/03 05:17:17;;;;;;;0.60;0.60;;;;;;;5.69;100.00;89397.38;6145577;23;20043;-76
2023/11/03 05:19:43;;;;;;;0.77;0.75;;;;;;;5.68;100.00;89395.88;6145077;23;20001;-77
2023/11/03 05:22:09;;;;;;;0.65;0.65;;;;;;;5.59;100.00;89397.84;6144326;23;20014;-76
2023/11/03 05:24:35;;;;;;;0.70;0.70;;;;;;;5.70;100.00;89403.34;6146133;23;20017;-75
2023/11/03 05:27:01;;;;;;;0.70;0.70;;;;;;;5.72;100.00;89396.72;6146597;23;20040;-76
2023/11/03 05:29:26;;;;;;;0.57;0.57;;;;;;;5.69;100.00;89409.59;6145222;23;20067;-76
2023/11/03 05:31:52;;;;;;;0.57;0.57;;;;;;;5.66;100.00;89398.03;6147077;23;20017;-76
2023/11/03 05:34:19;;;;;;;3.45;1.00;;;;;;;5.62;100.00;89395.34;6146983;23;20077;-76
2023/11/03 05:36:45;;;;;;;0.50;0.50;;;;;;;5.74;100.00;89388.59;6145311;23;20434;-75
2023/11/03 05:39:12;;;;;;;0.50;0.50;;;;;;;5.69;100.00;89391.44;6146636;23;20022;-76
2023/11/03 05:41:38;;;;;;;0.60;0.60;;;;;;;5.66;100.00;89386.91;6144243;23;20361;-76
2023/11/03 05:44:05;;;;;;;0.60;0.60;;;;;;;5.64;100.00;89397.63;6145994;23;20009;-77
2023/11/03 05:46:31;;;;;;;0.60;0.60;;;;;;;5.57;100.00;89398.19;6146287;23;20419;-76
2023/11/03 05:48:57;;;;;;;0.50;0.50;;;;;;;5.58;100.00;89391.13;6146124;23;20013;-76
2023/11/03 05:51:23;;;;;;;0.70;0.70;;;;;;;5.69;100.00;89397.38;6144671;23;20499;-76
2023/11/03 05:53:50;;;;;;;0.60;0.60;;;;;;;5.66;100.00;89399.88;6146271;23;20014;-76
2023/11/03 05:56:16;;;;;;;0.60;0.60;;;;;;;5.62;100.00;89418.69;6146543;23;20044;-76
2023/11/03 05:58:42;;;;;;;0.80;0.80;;;;;;;5.75;100.00;89423.84;6146579;23;20044;-77
2023/11/03 06:01:08;;;;;;;1.15;0.82;;;;;;;5.74;100.00;89430.88;6146305;23;19997;-76
2023/11/03 06:03:35;;;;;;;4.47;0.90;;;;;;;5.88;100.00;89427.91;6146234;23;20536;-76
2023/11/03 06:06:02;;;;;;;0.70;0.70;;;;;;;5.85;100.00;89436.34;6146138;23;20013;-76
2023/11/03 06:08:28;;;;;;;0.57;0.57;;;;;;;5.79;100.00;89435.09;6145496;23;20005;-76
2023/11/03 06:10:53;;;;;;;0.88;0.73;;;;;;;5.76;100.00;89439.06;6145268;23;20012;-76
2023/11/03 06:13:19;;;;;;;0.50;0.50;;;;;;;5.76;100.00;89448.72;6145474;23;20017;-77
2023/11/03 06:15:45;;;;;;;0.80;0.80;;;;;;;5.85;100.00;89441.53;6146614;23;20051;-76
2023/11/03 06:18:11;;;;;;;0.63;0.63;;;;;;;5.79;100.00;89448.81;6146242;23;20018;-76
2023/11/03 06:20:38;;;;;;;0.80;0.80;;;;;;;5.74;100.00;89458.66;6146141;23;20017;-77
2023/11/03 06:23:04;;;;;;;0.68;0.68;;;;;;;5.74;100.00;89456.84;6144413;23;20001;-76
2023/11/03 06:25:29;;;;;;;0.60;0.60;;;;;;;5.75;100.00;89466.13;6146499;23;20024;-77
2023/11/03 06:27:55;;;;;;;0.98;0.77;;;;;;;5.95;100.00;89467.06;6145803;23;20115;-77
2023/11/03 06:30:21;;;;;;;0.60;0.60;;;;;;;6.00;100.00;89476.47;6144576;23;20455;-77
2023/11/03 06:32:47;;;;;;;0.77;0.77;;;;;;;6.04;100.00;89480.66;6144297;23;20020;-77
2023/11/03 06:35:12;;;;;;;0.80;0.80;;;;;;;6.10;100.00;89478.56;6146134;23;20010;-75
2023/11/03 06:37:38;;;;;;;0.60;0.60;;;;;;;6.11;100.00;89482.69;6145946;23;20439;-77
2023/11/03 06:40:05;;;;;;;0.68;0.68;;;;;;;6.29;100.00;89475.34;6146210;23;20132;-77
2023/11/03 06:42:30;;;;;;;0.70;0.70;;;;;;;6.34;100.00;89484.75;6146503;23;20055;-77
2023/11/03 06:44:56;;;;;;;0.70;0.70;;;;;;;6.28;100.00;89486.81;6145957;23;20363;-75
2023/11/03 06:47:22;;;;;;;0.70;0.70;;;;;;;6.28;100.00;89486.81;6144188;23;20332;-76
2023/11/03 06:49:47;;;;;;;0.60;0.60;;;;;;;6.24;100.00;89486.00;6146157;23;20014;-76
2023/11/03 06:52:13;;;;;;;0.70;0.70;;;;;;;6.29;100.00;89496.13;6146007;23;20088;-76
2023/11/03 06:54:39;;;;;;;0.70;0.70;;;;;;;6.27;100.00;89500.91;6145847;23;20002;-77
2023/11/03 06:57:06;;;;;;;0.50;0.50;;;;;;;6.22;100.00;89504.50;6120155;22;20017;-75
2023/11/03 06:59:35;;;;;;;0.50;0.50;;;;;;;6.21;100.00;89507.41;6145992;23;20024;-74
2023/11/03 07:02:01;;;;;;;0.75;0.75;;;;;;;6.20;100.00;89518.91;6146170;23;20029;-75
2023/11/03 07:04:27;;;;;;;0.75;0.75;;;;;;;6.21;100.00;89523.00;6147149;23;20059;-77
2023/11/03 07:06:52;;;;;;;0.60;0.60;;;;;;;6.30;100.00;89523.63;6146434;23;20021;-76
2023/11/03 07:09:18;;;;;;;0.60;0.60;;;;;;;6.33;100.00;89520.38;6145216;23;20072;-77
2023/11/03 07:11:44;;;;;;;0.60;0.60;;;;;;;6.34;100.00;89542.66;6144879;23;20017;-77
2023/11/03 07:14:11;;;;;;;0.60;0.60;;;;;;;6.38;100.00;89540.16;6145029;23;20064;-76
2023/11/03 07:16:42;;;;;;;0.60;0.60;;;;;;;6.56;95.66;89541.38;6149675;23;20017;-76
2023/11/03 07:19:08;;;;;;;0.70;0.70;;;;;;;6.50;100.00;89560.13;6145961;23;20063;-76
2023/11/03 07:21:34;;;;;;;0.70;0.70;;;;;;;6.44;100.00;89565.56;6146714;23;20028;-77
2023/11/03 07:24:00;;;;;;;1.25;0.80;;;;;;;6.35;100.00;89562.38;6148367;23;20010;-77
2023/11/03 07:26:28;;;;;;;0.70;0.70;;;;;;;6.29;100.00;89568.88;6145799;23;20346;-77
2023/11/03 07:28:54;;;;;;;0.70;0.70;;;;;;;6.24;100.00;89575.06;6122008;23;20374;-78
2023/11/03 07:31:20;;;;;;;0.88;0.80;;;;;;;6.25;100.00;89583.59;6118834;23;20049;-77
2023/11/03 07:33:46;;;;;;;0.70;0.70;;;;;;;6.25;100.00;89589.56;6146513;23;20051;-77
2023/11/03 07:36:11;;;;;;;1.95;0.63;;;;;;;6.29;100.00;89597.44;6146764;23;20061;-77
2023/11/03 07:38:39;;;;;;;0.70;0.70;;;;;;;6.38;100.00;89592.13;6148847;23;20261;-77
2023/11/03 07:41:07;;;;;;;0.68;0.60;;;;;;;6.40;100.00;89601.09;6147055;23;20022;-77
2023/11/03 07:43:36;;;;;;;0.73;0.73;;;;;;;6.50;97.50;89604.31;6145228;23;20077;-77
2023/11/03 07:46:03;;;;;;;0.65;0.65;;;;;;;6.49;100.00;89608.00;6148615;23;20025;-78
2023/11/03 07:48:28;;;;;;;0.70;0.70;;;;;;;6.51;96.64;89608.41;6147181;23;20012;-76
2023/11/03 07:50:54;;;;;;;0.90;0.77;;;;;;;6.51;98.75;89622.19;6146461;23;20232;-78
2023/11/03 07:53:20;;;;;;;0.70;0.70;;;;;;;6.56;100.00;89621.94;6144602;23;20033;-77
2023/11/03 07:55:48;;;;;;;0.80;0.80;;;;;;;6.52;100.00;89622.94;6145714;23;20370;-76
2023/11/03 07:58:13;;;;;;;0.70;0.70;;;;;;;6.54;97.11;89631.16;6145329;23;20307;-76
2023/11/03 08:00:39;;;;;;;0.65;0.65;;;;;;;6.65;95.55;89642.59;6143549;23;20466;-76
2023/11/03 08:03:07;;;;;;;0.90;0.90;;;;;;;6.62;94.54;89641.41;6145095;23;20401;-76
2023/11/03 08:05:34;;;;;;;1.10;1.00;;;;;;;6.58;99.59;89656.16;6144836;23;20009;-77
2023/11/03 08:08:01;;;;;;;0.95;0.93;;;;;;;6.60;98.75;89668.81;6146361;23;20024;-78
2023/11/03 08:10:27;;;;;;;1.10;0.90;;;;;;;6.59;99.65;89670.66;6147001;23;20088;-76
2023/11/03 08:12:53;;;;;;;0.90;0.90;;;;;;;6.57;100.00;89677.25;6146117;23;20008;-77
2023/11/03 08:15:20;;;;;;;2.70;0.70;;;;;;;6.57;100.00;89677.25;6146432;23;20017;-77
2023/11/03 08:17:46;;;;;;;0.65;0.65;;;;;;;6.60;100.00;89684.41;6120404;23;20099;-77
2023/11/03 08:20:15;;;;;;;1.05;0.93;;;;;;;6.59;100.00;89683.66;6146644;23;20043;-76
2023/11/03 08:22:42;;;;;;;0.80;0.80;;;;;;;6.57;100.00;89690.25;6146106;23;20028;-77
2023/11/03 08:25:08;;;;;;;0.60;0.60;;;;;;;6.57;100.00;89708.47;6146136;23;20466;-76
2023/11/03 08:27:34;;;;;;;0.60;0.60;;;;;;;6.58;100.00;89705.53;6145425;23;20025;-77
2023/11/03 08:30:03;;;;;;;0.90;0.90;;;;;;;6.57;100.00;89714.41;6145261;23;20009;-77
2023/11/03 08:32:30;;;;;;;0.70;0.70;;;;;;;6.57;99.67;89721.44;6099306;23;20029;-77
2023/11/03 08:34:56;;;;;;;0.98;0.90;;;;;;;6.56;100.00;89722.53;6147485;23;20017;-77
2023/11/03 08:37:22;;;;;;;1.27;1.00;;;;;;;6.61;100.00;89735.31;6146673;23;20009;-76
2023/11/03 08:39:51;;;;;;;0.70;0.70;;;;;;;6.60;100.00;89737.16;6147222;23;20017;-76
2023/11/03 08:42:17;;;;;;;1.08;0.85;;;;;;;6.59;100.00;89753.06;6147559;23;20048;-77
2023/11/03 08:44:44;;;;;;;0.68;0.68;;;;;;;6.61;95.43;89745.72;6146900;23;20018;-77
2023/11/03 08:47:09;;;;;;;0.70;0.70;;;;;;;6.65;97.79;89751.78;6147073;23;20111;-76
2023/11/03 08:49:35;;;;;;;0.73;0.70;;;;;;;6.66;97.13;89763.66;6146476;23;20013;-76
2023/11/03 08:52:01;;;;;;;0.90;0.90;;;;;;;6.66;94.72;89759.25;6145533;23;20013;-77
2023/11/03 08:54:27;;;;;;;0.93;0.65;;;;;;;6.68;97.26;89771.91;6145078;23;20089;-76
2023/11/03 08:56:53;;;;;;;0.70;0.70;;;;;;;6.70;98.63;89774.19;6147458;23;20041;-76
2023/11/03 08:59:19;;;;;;;0.70;0.70;;;;;;;6.68;100.00;89777.09;6147852;23;20001;-77
2023/11/03 09:01:45;;;;;;;0.70;0.70;;;;;;;6.70;100.00;89781.97;6147020;23;20017;-76
2023/11/03 09:04:11;;;;;;;0.88;0.70;;;;;;;6.70;100.00;89790.53;6147304;23;20024;-77
2023/11/03 09:06:37;;;;;;;1.98;0.70;;;;;;;6.72;100.00;89790.97;6148687;23;20028;-78
2023/11/03 09:09:04;;;;;;;0.70;0.70;;;;;;;6.75;100.00;89795.50;6149885;23;20017;-77
2023/11/03 09:11:30;;;;;;;0.60;0.60;;;;;;;6.80;100.00;89794.50;6148912;23;20020;-76
2023/11/03 09:13:59;;;;;;;0.70;0.70;;;;;;;6.83;100.00;89796.47;6147427;23;20002;-76
2023/11/03 09:16:24;;;;;;;0.93;0.82;;;;;;;6.87;100.00;89800.69;6146830;23;20321;-76
2023/11/03 09:18:52;;;;;;;0.82;0.82;;;;;;;6.93;100.00;89808.25;6146354;23;20084;-76
2023/11/03 09:21:18;;;;;;;2.80;1.27;;;;;;;6.99;100.00;89817.34;6148635;23;20131;-77
2023/11/03 09:23:44;;;;;;;3.33;1.63;;;;;;;7.02;100.00;89819.28;6148361;23;20128;-77
2023/11/03 09:26:10;;;;;;;3.38;1.67;;;;;;;7.06;100.00;89827.97;6146880;23;20351;-76
2023/11/03 09:28:38;;;;;;;3.35;1.48;;;;;;;7.09;100.00;89828.06;6147948;23;20340;-76
2023/11/03 09:31:05;;;;;;;2.15;1.23;;;;;;;7.12;100.00;89831.84;6146550;23;20013;-77
2023/11/03 09:33:31;;;;;;;1.90;1.25;;;;;;;7.15;100.00;89831.19;6148080;23;20425;-77
2023/11/03 09:35:56;;;;;;;1.48;1.10;;;;;;;7.21;100.00;89840.28;6147352;23;20040;-77
2023/11/03 09:38:22;;;;;;;1.67;1.10;;;;;;;7.22;100.00;89841.78;6146176;23;20039;-77
2023/11/03 09:40:48;;;;;;;1.08;1.00;;;;;;;7.30;100.00;89840.16;6146989;23;20020;-77
2023/11/03 09:43:14;;;;;;;3.17;1.55;;;;;;;7.39;100.00;89845.22;6147466;23;20460;-76
2023/11/03 09:45:42;;;;;;;1.10;1.00;;;;;;;7.41;100.00;89859.41;6150835;23;20017;-75
2023/11/03 09:48:08;;;;;;;2.78;1.20;;;;;;;7.42;100.00;89854.97;6147471;23;20010;-76
2023/11/03 09:50:37;;;;;;;2.25;1.20;;;;;;;7.48;100.00;89853.66;6146779;23;20059;-77
2023/11/03 09:53:11;;;;;;;1.13;1.02;;;;;;;7.51;100.00;89845.94;6121056;23;20225;-77
2023/11/03 09:55:38;;;;;;;1.13;0.88;;;;;;;7.57;100.00;89851.66;6147118;23;20074;-77
2023/11/03 09:58:05;;;;;;;1.02;0.90;;;;;;;7.65;100.00;89861.16;6120560;23;20017;-77
2023/11/03 10:00:32;;;;;;;0.85;0.85;;;;;;;7.75;100.00;89862.56;6145454;23;20410;-77
2023/11/03 10:02:57;;;;;;;0.73;0.73;;;;;;;7.84;100.00;89867.63;6145988;23;20076;-77
2023/11/03 10:05:27;;;;;;;0.80;0.80;;;;;;;7.96;96.60;89875.38;6145582;23;20350;-77
2023/11/03 10:08:17;;;;;;;1.00;0.90;;;;;;;8.14;100.00;89868.00;6144955;23;20045;-76
2023/11/03 10:10:46;;;;;;;1.23;0.90;;;;;;;8.22;100.00;89859.28;6146490;23;20040;-77
2023/11/03 10:13:14;;;;;;;1.13;0.90;;;;;;;8.31;100.00;89864.34;6144831;23;20013;-77
2023/11/03 10:15:43;;;;;;;0.80;0.80;;;;;;;8.42;100.00;89862.78;6146894;23;20013;-77
2023/11/03 10:18:09;;;;;;;0.70;0.70;;;;;;;8.51;98.72;89860.75;6146638;23;20025;-76
2023/11/03 10:20:36;;;;;;;0.70;0.70;;;;;;;8.65;95.94;89864.78;6146483;23;20077;-77
2023/11/03 10:23:02;;;;;;;0.88;0.85;;;;;;;8.78;80.18;89863.59;6146859;23;20028;-76
2023/11/03 10:25:27;;;;;;;1.90;1.13;;;;;;;8.93;98.89;89860.19;6145365;23;20033;-76
2023/11/03 10:27:56;;;;;;;1.25;1.00;;;;;;;8.89;100.00;89859.38;6145514;23;20016;-77
2023/11/03 10:30:24;;;;;;;1.10;1.00;;;;;;;8.99;100.00;89854.75;6145509;23;20025;-77
2023/11/03 10:32:50;;;;;;;3.20;1.15;;;;;;;9.13;100.00;89853.19;6146332;23;20051;-76
2023/11/03 10:35:15;;;;;;;2.00;1.30;;;;;;;9.28;100.00;89862.06;6144941;23;20623;-76
2023/11/03 10:37:41;;;;;;;1.23;1.02;;;;;;;9.45;100.00;89863.53;6145004;23;20070;-77
2023/11/03 10:40:18;;;;;;;3.90;1.20;;;;;;;9.76;100.00;89862.66;6120078;23;20041;-77
2023/11/03 10:42:48;;;;;;;1.40;1.10;;;;;;;9.89;95.96;89865.13;6144765;23;20022;-76
2023/11/03 10:45:20;;;;;;;1.85;1.10;;;;;;;10.07;92.63;89871.44;6147452;23;20009;-79
2023/11/03 10:48:15;;;;;;;1.10;1.00;;;;;;;10.12;95.03;89873.75;6146595;23;20021;-75
2023/11/03 10:51:29;;;;;;;2.40;1.20;;;;;;;10.50;94.24;89872.22;6119983;23;20016;-76
2023/11/03 10:54:17;;;;;;;1.98;1.30;;;;;;;10.71;100.00;89871.78;6146120;23;20355;-77
2023/11/03 10:56:46;;;;;;;1.67;1.20;;;;;;;11.29;100.00;89862.16;6148643;23;20059;-76
2023/11/03 10:59:14;;;;;;;1.63;1.05;;;;;;;11.58;100.00;89874.53;6147459;23;20044;-78
2023/11/03 11:01:54;;;;;;;1.67;1.13;;;;;;;11.94;100.00;89876.88;6151514;23;20120;-78
2023/11/03 11:04:32;;;;;;;1.30;1.10;;;;;;;12.28;90.29;89883.59;6150793;23;20005;-77
2023/11/03 11:07:05;;;;;;;5.70;1.45;;;;;;;11.96;81.27;89882.50;6150002;23;20017;-77
2023/11/03 11:09:42;;;;;;;1.73;1.10;;;;;;;11.67;89.90;89887.38;6150159;23;20084;-76
2023/11/03 11:12:09;;;;;;;6.50;1.10;;;;;;;11.54;93.81;89884.22;6151000;23;20014;-79
2023/11/03 11:14:40;;;;;;;1.58;1.20;;;;;;;11.20;93.63;89886.00;6149865;23;20059;-78
2023/11/03 11:17:23;;;;;;;1.55;1.10;;;;;;;11.15;100.00;89896.78;6151255;23;20010;-78
2023/11/03 11:19:57;;;;;;;4.47;1.40;;;;;;;11.26;100.00;89892.44;6150067;23;20013;-79
2023/11/03 11:22:27;;;;;;;2.60;1.40;;;;;;;11.03;100.00;89901.09;6152905;23;20018;-78
2023/11/03 11:24:56;;;;;;;2.38;1.40;;;;;;;10.97;100.00;89909.59;6125866;23;20009;-79
2023/11/03 11:27:24;;;;;;;2.40;1.30;;;;;;;11.18;100.00;89909.91;6150630;23;20030;-77
2023/11/03 11:30:01;;;;;;;1.95;1.20;;;;;;;11.12;98.69;89915.78;6152526;23;19998;-77
2023/11/03 11:32:26;;;;;;;1.88;1.35;;;;;;;10.99;99.06;89915.97;6151338;23;20026;-78
2023/11/03 11:34:57;;;;;;;1.30;1.15;;;;;;;11.03;100.00;89903.72;6123243;23;20021;-78